Detall de PIREP

Printer-friendly versionPDF version

[2013/12/19 19:09:00]
Flight IATA:CT2302
Pilot Number:044
Company ICAO:CAT
Aircraft Type:BE20/A
PAX:4
Departing Airport: LIEA
Destination Airport: LIBR
Alternate Airport:LIBD
Online: VATSIM
Route:KOLUS M603 SOR M742 LUXIL L995 ROBOT
Flight Level:F180
No Slew and time accel
No pause
Crash detect
Detect pilot in Cockpit between each 30 and 45 minutes
19:09 Zero fuel Weight: 9316 Lbs, Fuel Weight: 2566 Lbs
19:09 VATSIM:LIEA 191850Z 15005KT 9999 FEW025 13/10 Q1018
19:09 VATSIM:LIBR 191845Z 19004KT CAVOK 08/05 Q1024 NOSIG
19:09 VOICE CATALONIAN
19:10 Parking Brakes off
19:15 Take-off
19:15 Take off Weight: 11863 Lbs
19:15 Wind: 150º @ 005 Knots Heading: 200º
19:15 POS N40º 37´ 51´´ E008º 17´ 25´´
19:15 Flaps:1 at 126 Knots
19:15 Gear Up: 125 Knots
19:16 Flaps:0 at 115 Knots
19:30 Wind:153º@018 Knots Heading: 065º Ground Speed: 200 Knots Altitude 15249 ft
19:32 TOC
19:32 Fuel Weight: 2342 Lb
19:45 Wind:219º@007 Knots Heading: 086º Ground Speed: 269 Knots Altitude 18169 ft
20:00 Wind:123º@015 Knots Heading: 087º Ground Speed: 256 Knots Altitude 18208 ft
20:15 Wind:101º@011 Knots Heading: 106º Ground Speed: 256 Knots Altitude 18241 ft
20:30 Wind:359º@006 Knots Heading: 076º Ground Speed: 268 Knots Altitude 18244 ft
20:45 Wind:241º@012 Knots Heading: 082º Ground Speed: 282 Knots Altitude 18251 ft
20:53 TOD
20:53 Fuel Weight: 1350 Lb
21:00 Wind:170º@007 Knots Heading: 105º Ground Speed: 214 Knots Altitude 10413 ft
21:07 Flaps:1 at 149 Knots
21:11 Flaps:2 at 135 Knots
21:11 Gear Down: 130 Knots
21:14 TouchDown:Rate -107 ft/min Speed: 115 Knots
21:14 VATSIM:LIBR 192045Z 19002KT CAVOK 05/02 Q1024 NOSIG
21:14 Land
21:14 Wind:187º@002 Knots
21:14 Heading: 139º
21:14 Flight Duration: 01:59
21:14 Landing Weight: 10562 Lbs
21:14POS N40º 39´ 33´´ E017º 56´ 44´´
21:16 Parking brakes on
21:16 Block to Block Duration: 02:06
21:16 Final Fuel: 1241 Lbls
21:16 Spent Fuel: 1324 Lbls
21:16 Flight Length: 471 NM
21:16 TOD Land Length: 64 NM

Exportar CSV

Powered by Drupal - Modified by Danger4k